createdAt,value
2019-01-23T00:00:59.284Z,276.07
2019-01-23T00:03:32.731Z,261.53
2019-01-23T00:06:04.778Z,256.97
2019-01-23T00:08:40.148Z,276.13
2019-01-23T00:11:11.562Z,265.57
2019-01-23T00:13:44.108Z,271.13
2019-01-23T00:16:15.598Z,262.90
2019-01-23T00:18:49.884Z,256.40
2019-01-23T00:21:21.382Z,261.93
2019-01-23T00:23:52.869Z,270.53
2019-01-23T00:26:24.366Z,248.13
2019-01-23T00:28:55.767Z,261.67
2019-01-23T00:31:26.983Z,253.03
2019-01-23T00:33:58.375Z,263.57
2019-01-23T00:36:30.917Z,244.00
2019-01-23T00:39:02.288Z,246.97
2019-01-23T00:41:33.895Z,263.27
2019-01-23T00:44:05.328Z,258.63
2019-01-23T00:46:37.113Z,254.70
2019-01-23T00:49:08.705Z,268.73
2019-01-23T00:51:40.071Z,263.40
2019-01-23T00:54:11.849Z,259.40
2019-01-23T00:56:43.136Z,253.80
2019-01-23T00:59:14.883Z,281.53
2019-01-23T01:01:46.179Z,258.50
2019-01-23T01:04:17.576Z,272.03
2019-01-23T01:06:52.379Z,259.93
2019-01-23T01:09:23.676Z,277.20
2019-01-23T01:11:54.894Z,254.10
2019-01-23T01:14:26.375Z,260.97
2019-01-23T01:16:57.617Z,266.13
2019-01-23T01:19:28.877Z,246.80
2019-01-23T01:22:00.424Z,254.00
2019-01-23T01:24:33.045Z,251.20
2019-01-23T01:27:04.417Z,266.60
2019-01-23T01:29:36.038Z,262.00
2019-01-23T01:32:07.369Z,271.43
2019-01-23T01:34:38.789Z,263.03
2019-01-23T01:37:10.571Z,263.23
2019-01-23T01:39:43.439Z,245.80
2019-01-23T01:42:18.322Z,255.53
2019-01-23T01:45:04.483Z,255.87
2019-01-23T01:47:37.717Z,274.43
2019-01-23T01:50:13.408Z,276.43
2019-01-23T01:52:45.547Z,264.67
2019-01-23T01:55:16.897Z,269.20
2019-01-23T01:57:48.404Z,268.70
2019-01-23T02:00:21.582Z,259.83
2019-01-23T02:02:53.264Z,249.93
2019-01-23T02:05:24.610Z,267.37
2019-01-23T02:07:55.986Z,246.90
2019-01-23T02:10:27.391Z,263.47
2019-01-23T02:12:58.828Z,257.00
2019-01-23T02:15:30.145Z,250.73
2019-01-23T02:18:01.654Z,269.87
2019-01-23T02:20:33.093Z,241.47
2019-01-23T02:23:04.404Z,242.70
2019-01-23T02:25:35.742Z,245.53
2019-01-23T02:28:07.192Z,243.47
2019-01-23T02:30:39.962Z,251.03
2019-01-23T02:33:11.586Z,246.23
2019-01-23T02:35:44.081Z,240.00
2019-01-23T02:38:15.933Z,225.13
2019-01-23T02:40:47.709Z,232.60
2019-01-23T02:43:19.177Z,217.63
2019-01-23T02:45:50.759Z,205.23
2019-01-23T02:48:22.118Z,221.13
2019-01-23T02:50:53.475Z,200.60
2019-01-23T02:53:26.453Z,215.37
2019-01-23T02:55:57.764Z,195.13
2019-01-23T02:58:29.206Z,201.77
2019-01-23T03:01:01.059Z,198.90
2019-01-23T03:03:32.466Z,191.23
2019-01-23T03:06:03.848Z,176.10
2019-01-23T03:08:36.083Z,184.07
2019-01-23T03:11:10.518Z,173.70
2019-01-23T03:13:41.862Z,196.60
2019-01-23T03:16:13.174Z,188.53
2019-01-23T03:18:44.517Z,184.03
2019-01-23T03:21:15.877Z,191.93
2019-01-23T03:23:47.273Z,180.03
2019-01-23T03:26:21.945Z,183.07
2019-01-23T03:28:53.298Z,173.60
2019-01-23T03:31:24.890Z,161.73
2019-01-23T03:33:56.167Z,154.90
2019-01-23T03:36:29.725Z,169.53
2019-01-23T03:39:04.625Z,150.93
2019-01-23T03:41:36.571Z,161.90
2019-01-23T03:44:07.873Z,165.77
2019-01-23T03:46:39.285Z,149.90
2019-01-23T03:49:11.089Z,164.80
2019-01-23T03:51:42.502Z,159.27
2019-01-23T03:54:13.743Z,146.53
2019-01-23T03:56:45.630Z,159.10
2019-01-23T03:59:16.910Z,147.87
2019-01-23T04:01:48.345Z,157.23
2019-01-23T04:04:19.794Z,142.27
2019-01-23T04:06:56.810Z,149.27
2019-01-23T04:09:28.256Z,152.93
2019-01-23T04:12:01.344Z,155.93
2019-01-23T04:14:32.700Z,165.73
2019-01-23T04:17:10.464Z,179.77
2019-01-23T04:19:41.785Z,171.23
2019-01-23T04:22:13.098Z,197.23
2019-01-23T04:24:48.359Z,176.50
2019-01-23T04:27:20.789Z,189.27
2019-01-23T04:29:52.006Z,181.13
2019-01-23T04:32:23.785Z,191.10
2019-01-23T04:34:58.987Z,198.33
2019-01-23T04:37:32.264Z,178.13
2019-01-23T04:40:07.621Z,188.80
2019-01-23T04:42:39.045Z,189.70
2019-01-23T04:45:11.597Z,192.20
2019-01-23T04:47:43.109Z,184.70
2019-01-23T04:50:16.059Z,188.13
2019-01-23T04:52:52.882Z,203.03
2019-01-23T04:55:24.913Z,185.00
2019-01-23T04:57:57.079Z,178.40
2019-01-23T05:00:29.292Z,185.10
2019-01-23T05:03:02.841Z,178.03
2019-01-23T05:05:33.857Z,185.30
2019-01-23T05:08:05.096Z,174.87
2019-01-23T05:10:36.503Z,182.83
2019-01-23T05:13:07.866Z,182.40
2019-01-23T05:15:39.333Z,186.30
2019-01-23T05:18:10.640Z,166.23
2019-01-23T05:20:42.006Z,180.07
2019-01-23T05:23:13.548Z,170.67
2019-01-23T05:25:44.863Z,168.27
2019-01-23T05:28:19.140Z,164.37
2019-01-23T05:30:50.574Z,167.93
2019-01-23T05:33:25.473Z,160.10
2019-01-23T05:35:56.789Z,163.20
2019-01-23T05:38:28.259Z,162.60
2019-01-23T05:40:59.970Z,147.43
2019-01-23T05:43:31.349Z,155.33
2019-01-23T05:46:02.674Z,161.50
2019-01-23T05:48:33.977Z,170.87
2019-01-23T05:51:05.744Z,152.60
2019-01-23T05:53:39.000Z,154.67
2019-01-23T05:56:10.267Z,156.17
2019-01-23T05:58:44.761Z,147.30
2019-01-23T06:01:16.266Z,162.13
2019-01-23T06:03:47.580Z,163.23
2019-01-23T06:06:20.495Z,176.30
2019-01-23T06:08:53.842Z,166.37
2019-01-23T06:11:25.073Z,177.70
2019-01-23T06:14:00.146Z,164.97
2019-01-23T06:16:32.367Z,176.97
2019-01-23T06:19:03.636Z,181.00
2019-01-23T06:21:35.322Z,178.33
2019-01-23T06:24:07.402Z,169.67
2019-01-23T06:26:39.208Z,174.67
2019-01-23T06:29:10.621Z,169.30
2019-01-23T06:31:41.947Z,171.77
2019-01-23T06:34:14.527Z,176.80
2019-01-23T06:36:46.745Z,174.17
2019-01-23T06:39:18.189Z,152.47
2019-01-23T06:41:51.431Z,171.37
2019-01-23T06:44:24.520Z,173.10
2019-01-23T06:46:55.845Z,160.13
2019-01-23T06:49:27.471Z,171.50
2019-01-23T06:51:58.866Z,170.30
2019-01-23T06:54:32.400Z,170.73
2019-01-23T06:57:12.370Z,169.00
2019-01-23T06:59:44.009Z,156.83
2019-01-23T07:02:15.481Z,153.53
2019-01-23T07:04:49.535Z,171.43
2019-01-23T07:07:21.086Z,167.50
2019-01-23T07:09:53.746Z,188.23
2019-01-23T07:12:25.026Z,176.47
2019-01-23T07:14:56.867Z,178.93
2019-01-23T07:17:29.926Z,176.80
2019-01-23T07:20:01.525Z,176.60
2019-01-23T07:22:33.926Z,184.77
2019-01-23T07:25:06.802Z,173.47
2019-01-23T07:27:38.176Z,168.07
2019-01-23T07:30:16.622Z,165.57
2019-01-23T07:32:47.921Z,163.03
2019-01-23T07:35:19.238Z,158.23
2019-01-23T07:37:50.999Z,171.60
2019-01-23T07:40:22.519Z,152.37
2019-01-23T07:42:55.898Z,158.80
2019-01-23T07:45:27.580Z,154.73
2019-01-23T07:47:58.972Z,174.13
2019-01-23T07:50:30.404Z,172.53
2019-01-23T07:53:01.778Z,157.80
2019-01-23T07:55:35.307Z,160.53
2019-01-23T07:58:07.040Z,181.10
2019-01-23T08:00:38.618Z,168.03
2019-01-23T08:03:09.993Z,173.33
2019-01-23T08:05:41.394Z,174.47
2019-01-23T08:08:14.636Z,177.43
2019-01-23T08:10:46.652Z,176.10
2019-01-23T08:13:18.095Z,171.03
2019-01-23T08:15:49.423Z,167.13
2019-01-23T08:18:20.811Z,178.10
2019-01-23T08:20:55.784Z,164.60
2019-01-23T08:23:27.371Z,167.53
2019-01-23T08:25:58.725Z,158.33
2019-01-23T08:28:30.190Z,156.70
2019-01-23T08:31:01.729Z,149.03
2019-01-23T08:33:33.236Z,168.97
2019-01-23T08:36:04.656Z,150.03
2019-01-23T08:38:36.821Z,160.27
2019-01-23T08:41:08.068Z,160.93
2019-01-23T08:43:46.990Z,159.77
2019-01-23T08:46:18.787Z,155.93
2019-01-23T08:48:56.455Z,164.10
2019-01-23T08:51:27.528Z,157.30
2019-01-23T08:53:58.908Z,153.20
2019-01-23T08:56:31.642Z,156.87
2019-01-23T08:59:03.534Z,145.07
2019-01-23T09:01:36.831Z,140.33
2019-01-23T09:04:08.776Z,151.37
2019-01-23T09:06:41.046Z,148.87
2019-01-23T09:09:13.173Z,150.00
2019-01-23T09:11:44.671Z,145.23
2019-01-23T09:14:17.929Z,147.30
2019-01-23T09:16:49.325Z,156.50
2019-01-23T09:19:22.925Z,144.40
2019-01-23T09:21:54.339Z,145.87
2019-01-23T09:24:26.119Z,179.40
2019-01-23T09:26:57.550Z,173.00
2019-01-23T09:29:28.948Z,201.47
2019-01-23T09:32:14.565Z,178.33
2019-01-23T09:34:55.057Z,177.03
2019-01-23T09:37:54.467Z,164.83
2019-01-23T09:40:41.448Z,170.67
2019-01-23T09:43:41.510Z,167.17
2019-01-23T09:46:29.721Z,196.83
2019-01-23T09:49:27.418Z,169.30
2019-01-23T09:52:43.161Z,160.67
2019-01-23T09:55:15.205Z,181.50
2019-01-23T09:57:50.037Z,178.20
2019-01-23T10:00:24.072Z,199.23
2019-01-23T10:02:55.565Z,184.87
2019-01-23T10:05:26.969Z,176.00
2019-01-23T10:07:59.589Z,168.17
2019-01-23T10:10:32.174Z,157.73
2019-01-23T10:13:03.678Z,163.37
2019-01-23T10:16:07.700Z,168.77
2019-01-23T10:18:44.284Z,153.93
2019-01-23T10:21:18.679Z,165.53
2019-01-23T10:23:50.318Z,167.23
2019-01-23T10:26:21.813Z,146.47
2019-01-23T10:28:53.364Z,145.30
2019-01-23T10:31:24.845Z,161.03
2019-01-23T10:33:56.271Z,137.47
2019-01-23T10:36:28.650Z,143.77
2019-01-23T10:39:00.124Z,147.40
2019-01-23T10:41:33.300Z,135.50
2019-01-23T10:44:04.848Z,140.37
2019-01-23T10:46:37.780Z,140.17
2019-01-23T10:49:09.207Z,125.60
2019-01-23T10:51:41.854Z,117.07
2019-01-23T10:57:07.815Z,118.30
2019-01-23T10:59:39.386Z,123.80
2019-01-23T11:02:12.245Z,104.80
2019-01-23T11:04:43.545Z,108.10
2019-01-23T11:07:15.325Z,109.10
2019-01-23T11:09:46.631Z,103.30
2019-01-23T11:12:18.241Z,118.63
2019-01-23T11:14:51.345Z,103.00
2019-01-23T11:17:22.897Z,108.63
2019-01-23T11:19:54.590Z,108.30
2019-01-23T11:22:28.457Z,105.37
2019-01-23T11:24:59.902Z,110.33
2019-01-23T11:27:39.285Z,110.00
2019-01-23T11:30:20.049Z,112.77
2019-01-23T11:32:51.831Z,99.53
2019-01-23T11:35:23.741Z,110.80
2019-01-23T11:37:55.652Z,109.73
2019-01-23T11:40:29.080Z,112.50
2019-01-23T11:43:00.821Z,103.47
2019-01-23T11:45:32.276Z,94.60
2019-01-23T11:48:04.286Z,99.70
2019-01-23T11:50:35.727Z,103.67
2019-01-23T11:53:07.587Z,100.03
2019-01-23T11:55:39.048Z,104.30
2019-01-23T11:58:11.242Z,101.97
2019-01-23T12:00:42.903Z,91.47
2019-01-23T12:03:20.716Z,95.60
2019-01-23T12:05:47.770Z,89.60
2019-01-23T12:08:19.216Z,88.43
2019-01-23T12:10:50.890Z,87.77
2019-01-23T12:13:22.391Z,75.70
2019-01-23T12:15:54.749Z,80.00
2019-01-23T12:18:26.159Z,82.20
2019-01-23T12:20:57.862Z,74.13
2019-01-23T12:23:29.358Z,75.60
2019-01-23T12:26:00.816Z,66.43
2019-01-23T12:28:35.091Z,64.83
2019-01-23T12:31:06.818Z,60.67
2019-01-23T12:33:38.361Z,66.17
2019-01-23T12:36:09.841Z,65.93
2019-01-23T12:38:42.357Z,86.33
2019-01-23T12:41:13.834Z,128.73
2019-01-23T12:43:44.696Z,83.30
2019-01-23T12:46:15.863Z,84.20
2019-01-23T12:48:48.054Z,80.60
2019-01-23T12:51:19.756Z,68.60
2019-01-23T12:53:50.605Z,62.17
2019-01-23T12:56:23.298Z,62.20
2019-01-23T12:58:54.297Z,78.33
2019-01-23T13:01:25.534Z,97.97
2019-01-23T13:03:56.977Z,82.40
2019-01-23T13:06:36.614Z,78.50
2019-01-23T13:09:09.302Z,56.93
2019-01-23T13:11:40.874Z,62.10
2019-01-23T13:14:12.574Z,61.00
2019-01-23T13:16:44.089Z,64.30
2019-01-23T13:19:15.613Z,66.47
2019-01-23T13:21:50.030Z,65.83
2019-01-23T13:24:32.954Z,60.93
2019-01-23T13:27:04.801Z,58.60
2019-01-23T13:29:36.226Z,58.30
2019-01-23T13:32:07.970Z,64.47
2019-01-23T13:34:38.623Z,61.67
2019-01-23T13:37:10.364Z,64.30
2019-01-23T13:39:41.789Z,53.13
2019-01-23T13:42:13.252Z,60.97
2019-01-23T13:44:44.726Z,59.43
2019-01-23T13:47:17.579Z,51.17
2019-01-23T13:49:49.152Z,58.53
2019-01-23T13:52:20.542Z,53.40
2019-01-23T13:54:52.354Z,56.00
2019-01-23T13:57:23.596Z,63.57
2019-01-23T13:59:55.035Z,55.93
2019-01-23T14:02:26.828Z,54.93
2019-01-23T14:04:58.349Z,57.80
2019-01-23T14:07:29.996Z,56.00
2019-01-23T14:10:01.285Z,63.43
2019-01-23T14:12:33.408Z,65.30
2019-01-23T14:15:07.065Z,80.17
2019-01-23T14:17:40.110Z,87.27
2019-01-23T14:20:13.609Z,77.13
2019-01-23T14:22:45.162Z,75.53
2019-01-23T14:25:17.970Z,73.57
2019-01-23T14:27:49.567Z,66.53
2019-01-23T14:30:32.640Z,77.80
2019-01-23T14:33:04.169Z,69.53
2019-01-23T14:35:39.052Z,76.40
2019-01-23T14:38:11.325Z,58.47
2019-01-23T14:40:44.282Z,73.70
2019-01-23T14:43:15.867Z,75.23
2019-01-23T14:45:49.738Z,68.97
2019-01-23T14:48:21.226Z,74.37
2019-01-23T14:50:53.269Z,63.13
2019-01-23T14:53:24.694Z,53.97
2019-01-23T14:55:56.176Z,66.40
2019-01-23T14:58:30.783Z,84.87
2019-01-23T15:01:02.410Z,71.97
2019-01-23T15:03:34.057Z,72.50
2019-01-23T15:06:05.694Z,65.83
2019-01-23T15:08:37.137Z,73.00
2019-01-23T15:11:08.641Z,75.17
2019-01-23T15:13:40.092Z,72.70
2019-01-23T15:16:11.731Z,76.40
2019-01-23T15:18:43.470Z,70.17
2019-01-23T15:21:14.862Z,81.63
2019-01-23T15:23:46.302Z,78.00
2019-01-23T15:26:17.868Z,80.60
2019-01-23T15:28:49.246Z,85.63
2019-01-23T15:31:21.050Z,73.97
2019-01-23T15:33:52.590Z,77.10
2019-01-23T15:36:24.078Z,74.33
2019-01-23T15:38:55.717Z,68.30
2019-01-23T15:41:27.173Z,72.73
2019-01-23T15:43:58.737Z,73.67
2019-01-23T15:46:30.393Z,75.27
2019-01-23T15:49:02.988Z,77.57
2019-01-23T15:51:36.710Z,67.33
2019-01-23T15:54:14.048Z,68.77
2019-01-23T15:56:45.980Z,73.73
2019-01-23T15:59:17.511Z,81.77
2019-01-23T16:01:48.975Z,80.40
2019-01-23T16:04:20.348Z,84.27
2019-01-23T16:06:51.846Z,92.13
2019-01-23T16:09:23.418Z,76.20
2019-01-23T16:11:56.661Z,89.97
2019-01-23T16:14:28.155Z,88.77
2019-01-23T16:16:59.849Z,93.70
2019-01-23T16:19:31.203Z,95.93
2019-01-23T16:22:02.793Z,112.33
2019-01-23T16:24:34.255Z,117.10
2019-01-23T16:27:09.786Z,123.77
2019-01-23T16:29:43.034Z,141.60
2019-01-23T16:32:14.817Z,117.80
2019-01-23T16:34:46.317Z,127.77
2019-01-23T16:37:17.781Z,129.70
2019-01-23T16:39:49.249Z,135.87
2019-01-23T16:42:20.819Z,125.70
2019-01-23T16:44:52.338Z,112.17
2019-01-23T16:47:24.007Z,122.53
2019-01-23T16:49:56.835Z,133.37
2019-01-23T16:52:28.896Z,129.50
2019-01-23T16:55:00.556Z,138.43
2019-01-23T16:57:32.135Z,124.30
2019-01-23T17:00:04.941Z,118.77
2019-01-23T17:02:39.561Z,132.17
2019-01-23T17:05:13.977Z,129.20
2019-01-23T17:07:45.949Z,141.67
2019-01-23T17:10:19.508Z,124.37
2019-01-23T17:12:51.185Z,125.60
2019-01-23T17:15:22.987Z,98.17
2019-01-23T17:17:54.541Z,133.37
2019-01-23T17:20:35.416Z,131.77
2019-01-23T17:23:07.104Z,131.97
2019-01-23T17:25:38.658Z,123.17
2019-01-23T17:28:11.376Z,122.10
2019-01-23T17:30:42.881Z,124.00
2019-01-23T17:33:15.911Z,125.80
2019-01-23T17:35:47.525Z,109.23
2019-01-23T17:38:19.176Z,114.23
2019-01-23T17:40:50.997Z,118.20
2019-01-23T17:43:24.161Z,110.13
2019-01-23T17:45:57.020Z,99.73
2019-01-23T17:48:28.487Z,109.93
2019-01-23T17:51:00.718Z,108.07
2019-01-23T17:53:35.568Z,121.47
2019-01-23T17:56:08.601Z,104.93
2019-01-23T17:58:40.017Z,104.03
2019-01-23T18:01:15.989Z,118.17
2019-01-23T18:03:48.898Z,103.33
2019-01-23T18:06:20.093Z,114.17
2019-01-23T18:08:58.886Z,102.27
2019-01-23T18:11:31.257Z,129.67
2019-01-23T18:14:05.356Z,111.87
2019-01-23T18:16:36.785Z,109.07
2019-01-23T18:19:10.980Z,118.33
2019-01-23T18:21:42.489Z,115.97
2019-01-23T18:24:13.878Z,113.57
2019-01-23T18:26:46.757Z,114.50
2019-01-23T18:29:18.101Z,110.10
2019-01-23T18:31:56.263Z,118.03
2019-01-23T18:35:03.297Z,156.77
2019-01-23T18:38:14.765Z,127.93
2019-01-23T18:41:10.552Z,132.03
2019-01-23T18:44:13.673Z,123.13
2019-01-23T18:47:29.531Z,121.43
2019-01-23T18:50:50.902Z,113.07
2019-01-23T18:53:22.415Z,106.97
2019-01-23T18:55:55.177Z,125.13
2019-01-23T18:58:26.473Z,121.00
2019-01-23T19:01:01.066Z,117.30
2019-01-23T19:03:33.007Z,110.10
2019-01-23T19:06:04.554Z,123.27
2019-01-23T19:08:37.615Z,122.77
2019-01-23T19:11:12.984Z,122.57
2019-01-23T19:13:44.461Z,116.00
2019-01-23T19:16:16.014Z,107.27
2019-01-23T19:18:47.435Z,107.77
2019-01-23T19:21:18.892Z,116.67
2019-01-23T19:23:50.773Z,109.00
2019-01-23T19:26:22.022Z,129.93
2019-01-23T19:28:53.325Z,117.83
2019-01-23T19:31:28.158Z,127.13
2019-01-23T19:33:59.879Z,125.73
2019-01-23T19:36:31.200Z,128.37
2019-01-23T19:39:04.185Z,130.03
2019-01-23T19:41:36.805Z,112.97
2019-01-23T19:44:09.031Z,113.37
2019-01-23T19:46:41.042Z,113.63
2019-01-23T19:49:12.382Z,108.77
2019-01-23T19:51:44.231Z,109.97
2019-01-23T19:54:18.610Z,100.70
2019-01-23T19:56:50.347Z,101.83
2019-01-23T19:59:22.183Z,100.17
2019-01-23T20:01:53.562Z,109.13
2019-01-23T20:04:24.864Z,105.93
2019-01-23T20:06:56.860Z,99.77
2019-01-23T20:09:38.717Z,99.33
2019-01-23T20:12:15.666Z,128.10
2019-01-23T20:14:43.135Z,104.07
2019-01-23T20:17:14.510Z,121.47
2019-01-23T20:19:46.106Z,101.73
2019-01-23T20:22:19.208Z,97.73
2019-01-23T20:24:51.242Z,135.30
2019-01-23T20:27:22.578Z,174.93
2019-01-23T20:29:53.869Z,139.03
2019-01-23T20:32:25.181Z,138.57
2019-01-23T20:34:56.578Z,116.83
2019-01-23T20:37:27.850Z,115.83
2019-01-23T20:40:01.266Z,121.60
2019-01-23T20:42:32.838Z,128.20
2019-01-23T20:45:05.615Z,124.83
2019-01-23T20:47:38.472Z,107.07
2019-01-23T20:50:14.234Z,116.83
2019-01-23T20:52:45.718Z,122.30
2019-01-23T20:55:17.314Z,124.57
2019-01-23T20:57:49.713Z,126.60
2019-01-23T21:00:23.109Z,132.37
2019-01-23T21:02:54.508Z,123.93
2019-01-23T21:05:25.908Z,130.73
2019-01-23T21:08:04.632Z,124.70
2019-01-23T21:10:36.386Z,122.00
2019-01-23T21:13:07.649Z,118.97
2019-01-23T21:15:40.206Z,119.60
2019-01-23T21:18:11.515Z,119.93
2019-01-23T21:20:44.040Z,126.60
2019-01-23T21:23:16.551Z,126.77
2019-01-23T21:25:47.881Z,115.97
2019-01-23T21:28:19.293Z,100.23
2019-01-23T21:30:50.949Z,118.10
2019-01-23T21:33:22.235Z,109.80
2019-01-23T21:38:24.496Z,103.43
2019-01-23T21:40:57.451Z,108.00
2019-01-23T21:43:28.873Z,106.33
2019-01-23T21:46:00.651Z,92.63
2019-01-23T21:48:32.089Z,102.40
2019-01-23T21:51:03.443Z,103.07
2019-01-23T21:53:36.650Z,111.57
2019-01-23T21:56:08.678Z,107.17
2019-01-23T21:58:41.628Z,105.80
2019-01-23T22:01:12.920Z,96.60
2019-01-23T22:03:49.291Z,107.73
2019-01-23T22:06:17.524Z,99.97
2019-01-23T22:08:48.924Z,117.40
2019-01-23T22:11:21.122Z,122.80
2019-01-23T22:13:52.464Z,132.27
2019-01-23T22:16:23.801Z,130.43
2019-01-23T22:18:55.105Z,123.80
2019-01-23T22:21:28.357Z,138.80
2019-01-23T22:23:59.858Z,130.47
2019-01-23T22:26:31.731Z,113.43
2019-01-23T22:29:04.558Z,119.63
2019-01-23T22:31:35.948Z,131.80
2019-01-23T22:34:07.345Z,121.77
2019-01-23T22:36:39.826Z,127.37
2019-01-23T22:39:12.097Z,119.10
2019-01-23T22:41:43.787Z,115.37
2019-01-23T22:44:17.003Z,118.53
2019-01-23T22:46:48.391Z,118.47
2019-01-23T22:49:19.695Z,115.83
2019-01-23T22:51:50.967Z,117.53
2019-01-23T22:54:22.453Z,106.03
2019-01-23T22:56:53.944Z,115.23
2019-01-23T22:59:25.786Z,93.33
2019-01-23T23:01:57.882Z,109.03
2019-01-23T23:04:29.719Z,110.40
2019-01-23T23:07:01.150Z,125.83
2019-01-23T23:09:33.011Z,131.77
2019-01-23T23:12:04.808Z,128.53
2019-01-23T23:14:37.774Z,115.43
2019-01-23T23:17:11.129Z,115.77
2019-01-23T23:19:42.463Z,107.63
2019-01-23T23:22:14.740Z,117.00
2019-01-23T23:24:46.168Z,109.47
2019-01-23T23:27:17.442Z,115.17
2019-01-23T23:29:51.151Z,107.20
2019-01-23T23:32:22.590Z,103.57
2019-01-23T23:34:53.885Z,92.00
2019-01-23T23:37:26.638Z,101.03
2019-01-23T23:40:00.664Z,96.63
2019-01-23T23:42:32.408Z,96.10
2019-01-23T23:45:04.581Z,98.50
2019-01-23T23:47:36.527Z,83.10
2019-01-23T23:50:10.465Z,84.83
2019-01-23T23:52:45.060Z,88.83
2019-01-23T23:55:17.257Z,89.33
2019-01-23T23:57:48.478Z,94.00
